^^
Saratoga-Weather Station Historical Data
Daily Summary for March 21, 2021 Units:  English    Metric   Both
Daily Weekly Monthly Yearly Custom
  High: Low: Average:
Temperature: 73.2 °F 63.3 °F 65.8 °F
Dew Point: 64.2 °F 60.1 °F 61.5 °F
Humidity: 93% 67% 87%
Wind Speed: 13mph 0mph 2.5mph
Wind Gust: 18mph - -
Wind- - SW
Pressure: 29.7 in 29.6 in -
Precipitation: 0 in    
Historical Graphs
 
 
Tabular Data for March 21, 2021
Time Temperature Dew Point Pressure Wind Wind Speed Wind Gust Humidity Rainfall Rate (Hourly) solar
00:03 66.7 °F 64 °F 29.7 in NE 2 mph 2 mph 91% 0 in 0 W/m2
00:08 66.7 °F 64 °F 29.7 in East 2.9 mph 3 mph 91% 0 in 0 W/m2
00:13 66.7 °F 64 °F 29.7 in WNW 2 mph 3 mph 91% 0 in 0 W/m2
00:18 66.7 °F 64 °F 29.7 in NNE 0.9 mph 2 mph 91% 0 in 0 W/m2
00:23 66.6 °F 63.9 °F 29.6 in Calm   1 mph 91% 0 in 0 W/m2
00:28 66.6 °F 64.2 °F 29.7 in Calm     92% 0 in 0 W/m2
00:33 66.4 °F 64 °F 29.7 in Calm     92% 0 in 0 W/m2
00:38 66 °F 63.7 °F 29.7 in NNW 0.9 mph 2 mph 92% 0 in 0 W/m2
00:43 65.8 °F 63.5 °F 29.7 in Calm     92% 0 in 0 W/m2
00:48 65.8 °F 63.5 °F 29.7 in Calm   1 mph 92% 0 in 0 W/m2
00:53 65.7 °F 63.3 °F 29.7 in Calm   1 mph 92% 0 in 0 W/m2
00:58 65.5 °F 63.1 °F 29.7 in Calm   2 mph 92% 0 in 0 W/m2
01:03 65.3 °F 63.1 °F 29.7 in ENE 2 mph 3 mph 93% 0 in 0 W/m2
01:08 65.1 °F 63 °F 29.7 in East 2 mph 4 mph 93% 0 in 0 W/m2
01:13 65.1 °F 63 °F 29.7 in ENE 0.9 mph 2 mph 93% 0 in 0 W/m2
01:18 64.9 °F 62.8 °F 29.6 in East 2 mph 2 mph 93% 0 in 0 W/m2
01:23 64.9 °F 62.8 °F 29.6 in East 0.9 mph 1 mph 93% 0 in 0 W/m2
01:28 64.8 °F 62.6 °F 29.6 in East 0.9 mph 2 mph 93% 0 in 0 W/m2
01:33 64.6 °F 62.4 °F 29.6 in Calm   1 mph 93% 0 in 0 W/m2
01:38 64.6 °F 62.4 °F 29.7 in ENE 0.9 mph 1 mph 93% 0 in 0 W/m2
01:43 64.4 °F 62.4 °F 29.7 in NW 0.9 mph 5 mph 93% 0 in 0 W/m2
01:48 64.2 °F 62.2 °F 29.7 in Calm   2 mph 93% 0 in 0 W/m2
01:53 64.4 °F 62.4 °F 29.7 in NE 2 mph 5 mph 93% 0 in 0 W/m2
01:58 64.2 °F 61.9 °F 29.7 in SE 0.9 mph 4 mph 92% 0 in 0 W/m2
02:03 64.2 °F 61.9 °F 29.7 in ENE 0.9 mph 4 mph 92% 0 in 0 W/m2
02:08 64.2 °F 61.9 °F 29.7 in ENE 0.9 mph 4 mph 92% 0 in 0 W/m2
02:13 64.2 °F 61.9 °F 29.7 in NNE 2.9 mph 4 mph 92% 0 in 0 W/m2
02:18 64.4 °F 62.1 °F 29.7 in Calm   1 mph 92% 0 in 0 W/m2
02:23 64.4 °F 62.1 °F 29.7 in East 0.9 mph 2 mph 92% 0 in 0 W/m2
02:28 64.6 °F 62.2 °F 29.7 in Calm   2 mph 92% 0 in 0 W/m2
02:33 64.4 °F 62.1 °F 29.7 in ENE 0.9 mph 2 mph 92% 0 in 0 W/m2
02:38 64.6 °F 62.2 °F 29.7 in East 2 mph 4 mph 92% 0 in 0 W/m2
02:43 64.6 °F 62.2 °F 29.7 in ENE 2 mph 2 mph 92% 0 in 0 W/m2
02:48 64.6 °F 62.2 °F 29.7 in Calm   4 mph 92% 0 in 0 W/m2
02:53 64.6 °F 61.9 °F 29.7 in Calm   1 mph 91% 0 in 0 W/m2
02:58 64.6 °F 61.9 °F 29.7 in Calm   3 mph 91% 0 in 0 W/m2
03:03 64.6 °F 61.9 °F 29.7 in Calm   1 mph 91% 0 in 0 W/m2
03:08 64.6 °F 61.9 °F 29.7 in North 2.9 mph 8 mph 91% 0 in 0 W/m2
03:13 64.6 °F 61.9 °F 29.7 in East 0.9 mph 3 mph 91% 0 in 0 W/m2
03:18 64.4 °F 61.7 °F 29.7 in Calm   8 mph 91% 0 in 0 W/m2
03:23 64.4 °F 61.7 °F 29.7 in ENE 0.9 mph 3 mph 91% 0 in 0 W/m2
03:28 64.4 °F 61.7 °F 29.7 in Calm   3 mph 91% 0 in 0 W/m2
03:33 64.4 °F 61.7 °F 29.7 in ENE 0.9 mph 1 mph 91% 0 in 0 W/m2
03:38 64.2 °F 61.5 °F 29.7 in ESE 2 mph 2 mph 91% 0 in 0 W/m2
03:43 64.2 °F 61.5 °F 29.7 in SE 0.9 mph 3 mph 91% 0 in 0 W/m2
03:48 64 °F 61.3 °F 29.7 in North 0.9 mph 6 mph 91% 0 in 0 W/m2
03:53 64 °F 61.3 °F 29.7 in West 2 mph 6 mph 91% 0 in 0 W/m2
03:58 63.9 °F 61.2 °F 29.7 in North 2 mph 5 mph 91% 0 in 0 W/m2
04:03 63.9 °F 61.5 °F 29.7 in WNW 6.9 mph 7 mph 92% 0 in 0 W/m2
04:08 63.9 °F 61.5 °F 29.7 in NNE 2 mph 5 mph 92% 0 in 0 W/m2
04:13 63.9 °F 61.5 °F 29.7 in North 4 mph 4 mph 92% 0 in 0 W/m2
04:18 64 °F 61.3 °F 29.7 in NW 2.9 mph 5 mph 91% 0 in 0 W/m2
04:23 64 °F 61.3 °F 29.7 in NW 0.9 mph 3 mph 91% 0 in 0 W/m2
04:28 64 °F 61.3 °F 29.7 in NNW 2 mph 5 mph 91% 0 in 0 W/m2
04:33 64 °F 61.3 °F 29.7 in WSW 2 mph 9 mph 91% 0 in 0 W/m2
04:38 63.9 °F 61.2 °F 29.7 in WNW 2.9 mph 3 mph 91% 0 in 0 W/m2
04:43 63.9 °F 61.2 °F 29.7 in NNW 2.9 mph 9 mph 91% 0 in 0 W/m2
04:48 63.9 °F 61.2 °F 29.7 in SW 2 mph 3 mph 91% 0 in 0 W/m2
04:53 63.9 °F 61.2 °F 29.7 in WNW 2.9 mph 6 mph 91% 0 in 0 W/m2
04:58 63.9 °F 61.2 °F 29.7 in WNW 2.9 mph 4 mph 91% 0 in 0 W/m2
05:04 63.9 °F 61.2 °F 29.7 in NW 0.9 mph 4 mph 91% 0 in 0 W/m2
05:09 63.9 °F 61.2 °F 29.7 in NNE 2 mph 3 mph 91% 0 in 0 W/m2
05:14 63.9 °F 61.2 °F 29.7 in NNE 2 mph 4 mph 91% 0 in 0 W/m2
05:19 63.9 °F 61.2 °F 29.7 in NW 2 mph 3 mph 91% 0 in 0 W/m2
05:24 63.9 °F 61.2 °F 29.7 in NNW 4 mph 4 mph 91% 0 in 0 W/m2
05:29 63.9 °F 61.2 °F 29.7 in WSW 2.9 mph 3 mph 91% 0 in 0 W/m2
05:34 63.7 °F 61 °F 29.7 in ENE 0.9 mph 2 mph 91% 0 in 0 W/m2
05:39 63.7 °F 61 °F 29.7 in Calm   5 mph 91% 0 in 0 W/m2
05:44 63.7 °F 60.6 °F 29.7 in North 2.9 mph 4 mph 90% 0 in 5 W/m2
05:49 63.7 °F 60.6 °F 29.7 in NNW 2 mph 4 mph 90% 0 in 7 W/m2
05:54 63.7 °F 60.6 °F 29.7 in NNW 0.9 mph 3 mph 90% 0 in 11 W/m2
05:59 63.7 °F 60.6 °F 29.7 in West 2.9 mph 7 mph 90% 0 in 11 W/m2
06:04 63.5 °F 60.4 °F 29.7 in Calm   2 mph 90% 0 in 14 W/m2
06:09 63.5 °F 60.4 °F 29.7 in West 0.9 mph 7 mph 90% 0 in 14 W/m2
06:14 63.5 °F 60.4 °F 29.7 in NNW 2.9 mph 4 mph 90% 0 in 12 W/m2
06:19 63.5 °F 60.4 °F 29.7 in WNW 2.9 mph 5 mph 90% 0 in 14 W/m2
06:24 63.5 °F 60.4 °F 29.7 in WNW 0.9 mph 3 mph 90% 0 in 16 W/m2
06:29 63.3 °F 60.3 °F 29.7 in NNW 2 mph 3 mph 90% 0 in 26 W/m2
06:34 63.5 °F 60.4 °F 29.7 in ESE 2 mph 4 mph 90% 0 in 46 W/m2
06:39 63.3 °F 60.3 °F 29.7 in North 2.9 mph 3 mph 90% 0 in 39 W/m2
06:44 63.3 °F 60.1 °F 29.7 in WNW 2 mph 7 mph 89% 0 in 37 W/m2
06:49 63.3 °F 60.1 °F 29.7 in ENE 0.9 mph 8 mph 89% 0 in 33 W/m2
06:54 63.3 °F 60.1 °F 29.7 in Calm   2 mph 89% 0 in 39 W/m2
06:59 63.3 °F 60.1 °F 29.7 in NNE 0.9 mph 5 mph 89% 0 in 25 W/m2
07:04 63.3 °F 60.1 °F 29.7 in NNW 0.9 mph 6 mph 89% 0 in 33 W/m2
07:09 63.3 °F 60.1 °F 29.7 in NW 2 mph 9 mph 89% 0 in 67 W/m2
07:14 63.5 °F 60.3 °F 29.7 in NW 8.9 mph 9 mph 89% 0 in 76 W/m2
07:19 63.5 °F 60.3 °F 29.7 in NW 6 mph 9 mph 89% 0 in 90 W/m2
07:24 63.7 °F 60.4 °F 29.7 in Calm   4 mph 89% 0 in 90 W/m2
07:29 63.7 °F 60.4 °F 29.7 in West 2.9 mph 9 mph 89% 0 in 111 W/m2
07:34 63.9 °F 60.6 °F 29.7 in NW 2 mph 2 mph 89% 0 in 58 W/m2
07:39 64 °F 60.4 °F 29.7 in NNW 0.9 mph 3 mph 88% 0 in 95 W/m2
07:44 64 °F 60.4 °F 29.7 in NW 0.9 mph 4 mph 88% 0 in 230 W/m2
07:49 64.6 °F 61 °F 29.7 in SW 4 mph 6 mph 88% 0 in 246 W/m2
07:54 64.8 °F 60.8 °F 29.7 in NNW 2.9 mph 4 mph 87% 0 in 199 W/m2
07:59 64.9 °F 60.6 °F 29.7 in WNW 4.9 mph 8 mph 86% 0 in 120 W/m2
08:04 65.1 °F 61.2 °F 29.7 in WSW 4 mph 8 mph 87% 0 in 216 W/m2
08:09 64.9 °F 60.6 °F 29.7 in North 2.9 mph 3 mph 86% 0 in 109 W/m2
08:14 64.9 °F 60.6 °F 29.7 in Calm   5 mph 86% 0 in 188 W/m2
08:19 65.1 °F 61.2 °F 29.7 in NW 2 mph 8 mph 87% 0 in 213 W/m2
08:24 64.9 °F 60.6 °F 29.7 in West 6 mph 6 mph 86% 0 in 169 W/m2
08:29 65.1 °F 60.8 °F 29.7 in WSW 4 mph 7 mph 86% 0 in 195 W/m2
08:34 65.1 °F 61.2 °F 29.7 in NW 2 mph 6 mph 87% 0 in 123 W/m2
08:39 65.1 °F 60.8 °F 29.7 in WSW 0.9 mph 5 mph 86% 0 in 174 W/m2
08:44 65.5 °F 61.5 °F 29.7 in WNW 4 mph 6 mph 87% 0 in 221 W/m2
08:49 65.5 °F 61.2 °F 29.7 in SW 2.9 mph 8 mph 86% 0 in 204 W/m2
08:54 65.7 °F 61.3 °F 29.7 in Calm   4 mph 86% 0 in 193 W/m2
08:59 65.8 °F 61.5 °F 29.7 in NW 2 mph 8 mph 86% 0 in 211 W/m2
09:04 65.8 °F 61.2 °F 29.7 in SW 2.9 mph 9 mph 85% 0 in 255 W/m2
09:09 65.8 °F 61.2 °F 29.7 in WSW 6.9 mph 9 mph 85% 0 in 258 W/m2
09:14 66.2 °F 61.9 °F 29.7 in West 2 mph 6 mph 86% 0 in 262 W/m2
09:19 66.6 °F 61.5 °F 29.7 in WNW 2 mph 9 mph 84% 0 in 223 W/m2
09:24 66.6 °F 61.5 °F 29.7 in WNW 6.9 mph 8 mph 84% 0 in 195 W/m2
09:29 66.4 °F 61.3 °F 29.7 in NW 2.9 mph 3 mph 84% 0 in 246 W/m2
09:34 66.4 °F 61.3 °F 29.7 in WNW 4 mph 13 mph 84% 0 in 364 W/m2
09:39 66.4 °F 61.3 °F 29.7 in NW 4 mph 10 mph 84% 0 in 336 W/m2
09:44 66.6 °F 61.5 °F 29.7 in East 2.9 mph 13 mph 84% 0 in 332 W/m2
09:49 66.7 °F 61.3 °F 29.7 in Calm   9 mph 83% 0 in 322 W/m2
09:54 66.9 °F 61.9 °F 29.7 in West 0.9 mph 4 mph 84% 0 in 267 W/m2
09:59 66.9 °F 61.5 °F 29.7 in NNW 2.9 mph 7 mph 83% 0 in 272 W/m2
10:04 66.9 °F 61.5 °F 29.7 in WNW 6.9 mph 7 mph 83% 0 in 230 W/m2
10:09 66.9 °F 61.5 °F 29.7 in SSW 0.9 mph 5 mph 83% 0 in 320 W/m2
10:14 66.9 °F 61.5 °F 29.7 in West 6 mph 8 mph 83% 0 in 276 W/m2
10:19 67.1 °F 61.3 °F 29.7 in NNE 2 mph 8 mph 82% 0 in 357 W/m2
10:24 67.3 °F 61.5 °F 29.7 in NW 2.9 mph 12 mph 82% 0 in 454 W/m2
10:29 67.6 °F 61.5 °F 29.7 in West 6 mph 10 mph 81% 0 in 694 W/m2
10:34 67.8 °F 61.7 °F 29.7 in West 6 mph 11 mph 81% 0 in 671 W/m2
10:39 68.4 °F 61.5 °F 29.7 in NNW 4.9 mph 9 mph 79% 0 in 691 W/m2
10:44 69.1 °F 61.9 °F 29.7 in WNW 2.9 mph 13 mph 78% 0 in 742 W/m2
10:49 69.1 °F 61.5 °F 29.7 in NW 4.9 mph 14 mph 77% 0 in 722 W/m2
10:54 69.3 °F 61.7 °F 29.7 in West 2 mph 8 mph 77% 0 in 724 W/m2
10:59 69.4 °F 61.5 °F 29.7 in NNW 8.1 mph 14 mph 76% 0 in 740 W/m2
11:04 69.6 °F 61.7 °F 29.7 in NW 6.9 mph 11 mph 76% 0 in 738 W/m2
11:09 70.2 °F 61.9 °F 29.7 in WSW 2.9 mph 11 mph 75% 0 in 756 W/m2
11:14 70.3 °F 60.8 °F 29.7 in WNW 6.9 mph 13 mph 72% 0 in 754 W/m2
11:19 70.2 °F 60.6 °F 29.7 in West 13 mph 18 mph 72% 0 in 763 W/m2
11:24 70 °F 61 °F 29.7 in SW 6 mph 15 mph 73% 0 in 773 W/m2
11:29 70.3 °F 61.3 °F 29.7 in WNW 2.9 mph 18 mph 73% 0 in 772 W/m2
11:34 70.5 °F 61.5 °F 29.7 in WNW 4 mph 11 mph 73% 0 in 786 W/m2
11:39 70.9 °F 61.3 °F 29.7 in Calm   8 mph 72% 0 in 791 W/m2
11:44 71.2 °F 62.1 °F 29.7 in NW 2 mph 5 mph 73% 0 in 803 W/m2
11:49 71.8 °F 62.2 °F 29.7 in NW 2.9 mph 4 mph 72% 0 in 809 W/m2
11:55 72.1 °F 61.9 °F 29.7 in WNW 4.9 mph 8 mph 70% 0 in 823 W/m2
12:00 72.1 °F 61.3 °F 29.7 in WSW 4 mph 12 mph 69% 0 in 833 W/m2
12:05 72.1 °F 61 °F 29.7 in WNW 6.9 mph 7 mph 68% 0 in 844 W/m2
12:10 72.1 °F 61.3 °F 29.7 in WNW 8.9 mph 10 mph 69% 0 in 846 W/m2
12:15 72.1 °F 61.3 °F 29.7 in WSW 4.9 mph 10 mph 69% 0 in 888 W/m2
12:20 72 °F 60.4 °F 29.7 in NW 8.9 mph 9 mph 67% 0 in 886 W/m2
12:25 72.5 °F 61.7 °F 29.7 in WNW 4 mph 8 mph 69% 0 in 898 W/m2
12:30 72.9 °F 62.1 °F 29.7 in WNW 4 mph 10 mph 69% 0 in 965 W/m2
12:35 73.2 °F 61.5 °F 29.7 in NW 2.9 mph 10 mph 67% 0 in 940 W/m2
Juneau County Weather
Compliments of Weather Underground - 2 mb